Time;durP1;ratioP1;P1;durP2;ratioP2;P2;SDS_P1;SDS_P2;PMS_P1;PMS_P2;Temp;Humidity;BMP_temperature;BMP_pressure;BME280_temperature;BME280_humidity;BME280_pressure;Samples;Min_cycle;Max_cycle;Signal;HPM_P1;HPM_P2
2023/12/08 00:01:22;;;;;;;35.10;17.55;;;0.50;99.90;;;;;;5044596;28;20095;-46
2023/12/08 00:03:47;;;;;;;30.38;16.25;;;0.40;99.90;;;;;;5043383;28;20140;-45
2023/12/08 00:06:13;;;;;;;32.05;16.25;;;0.40;99.90;;;;;;5044914;28;20406;-48
2023/12/08 00:08:39;;;;;;;31.88;16.80;;;0.40;99.90;;;;;;5041581;28;20025;-48
2023/12/08 00:11:06;;;;;;;33.83;17.55;;;0.40;99.90;;;;;;5044891;28;20017;-47
2023/12/08 00:13:32;;;;;;;33.20;18.40;;;0.40;99.90;;;;;;5042244;28;20021;-46
2023/12/08 00:15:57;;;;;;;32.92;16.95;;;0.40;99.90;;;;;;5043142;28;20021;-46
2023/12/08 00:18:23;;;;;;;36.75;17.40;;;0.40;99.90;;;;;;5044819;28;20024;-46
2023/12/08 00:20:49;;;;;;;31.38;17.35;;;0.50;99.90;;;;;;5043100;28;20032;-47
2023/12/08 00:23:14;;;;;;;36.05;19.52;;;0.40;99.90;;;;;;5044985;28;20107;-47
2023/12/08 00:25:41;;;;;;;37.38;18.95;;;0.40;99.90;;;;;;5043687;28;20029;-47
2023/12/08 00:28:06;;;;;;;36.28;18.48;;;0.40;99.90;;;;;;5044880;28;20021;-46
2023/12/08 00:30:32;;;;;;;38.25;19.02;;;0.40;99.90;;;;;;5042180;28;20043;-48
2023/12/08 00:32:58;;;;;;;39.60;19.20;;;0.40;99.90;;;;;;5044963;28;20477;-49
2023/12/08 00:35:23;;;;;;;39.55;18.90;;;0.40;99.90;;;;;;5045107;28;20032;-48
2023/12/08 00:37:49;;;;;;;36.33;17.85;;;0.30;99.90;;;;;;5043626;28;20378;-45
2023/12/08 00:40:18;;;;;;;38.45;18.80;;;0.30;99.90;;;;;;5044933;28;20029;-47
2023/12/08 00:42:44;;;;;;;41.15;20.27;;;0.30;99.90;;;;;;5043507;28;20021;-48
2023/12/08 00:45:10;;;;;;;36.22;18.75;;;0.30;99.90;;;;;;5045752;28;20021;-49
2023/12/08 00:47:36;;;;;;;36.15;18.15;;;0.30;99.90;;;;;;5043645;28;20035;-47
2023/12/08 00:50:01;;;;;;;36.55;20.98;;;0.30;99.90;;;;;;5038240;28;20091;-46
2023/12/08 00:52:27;;;;;;;35.58;17.60;;;0.30;99.90;;;;;;5044998;28;20021;-47
2023/12/08 00:54:52;;;;;;;38.75;18.98;;;0.30;99.90;;;;;;5044027;28;20492;-46
2023/12/08 00:57:18;;;;;;;35.22;18.30;;;0.30;99.90;;;;;;5045257;28;20017;-45
2023/12/08 00:59:44;;;;;;;31.75;17.67;;;0.30;99.90;;;;;;5043620;28;20025;-45
2023/12/08 01:02:09;;;;;;;34.53;18.08;;;0.30;99.90;;;;;;5045915;28;20036;-44
2023/12/08 01:04:35;;;;;;;35.28;17.15;;;0.30;99.90;;;;;;5045349;28;20055;-44
2023/12/08 01:07:00;;;;;;;33.85;17.23;;;0.30;99.90;;;;;;5040975;28;20036;-45
2023/12/08 01:09:26;;;;;;;35.78;18.10;;;0.20;99.90;;;;;;5049241;28;20376;-49
2023/12/08 01:11:52;;;;;;;31.83;16.27;;;0.30;99.90;;;;;;5048661;28;20336;-49
2023/12/08 01:14:18;;;;;;;32.80;17.40;;;0.20;99.90;;;;;;5049496;28;20124;-46
2023/12/08 01:16:44;;;;;;;33.95;18.58;;;0.20;99.90;;;;;;5048275;28;20100;-46
2023/12/08 01:19:11;;;;;;;33.15;17.60;;;0.20;99.90;;;;;;5041902;28;20040;-49
2023/12/08 01:21:37;;;;;;;35.50;18.63;;;0.20;99.90;;;;;;5047052;28;20056;-46
2023/12/08 01:24:04;;;;;;;35.08;18.38;;;0.20;99.90;;;;;;5049538;28;20322;-45
2023/12/08 01:26:30;;;;;;;41.75;19.48;;;0.10;99.90;;;;;;5064489;28;20096;-44
2023/12/08 01:28:55;;;;;;;40.70;17.92;;;0.10;99.90;;;;;;5048199;28;20191;-44
2023/12/08 01:31:21;;;;;;;37.13;18.90;;;0.10;99.90;;;;;;5049834;28;20609;-48
2023/12/08 01:33:47;;;;;;;37.30;20.42;;;0.10;99.90;;;;;;5046543;28;20029;-46
2023/12/08 01:36:13;;;;;;;36.67;18.90;;;0.10;99.90;;;;;;5036764;28;20509;-46
2023/12/08 01:38:45;;;;;;;37.05;18.67;;;0.10;99.90;;;;;;5031221;28;20021;-46
2023/12/08 01:41:15;;;;;;;35.03;19.17;;;0.20;99.90;;;;;;5032320;28;20028;-47
2023/12/08 01:43:43;;;;;;;39.67;19.57;;;0.20;99.90;;;;;;5029180;28;20100;-47
2023/12/08 01:46:12;;;;;;;38.97;19.58;;;0.20;99.90;;;;;;5031296;28;20024;-48
2023/12/08 01:48:38;;;;;;;32.85;18.48;;;0.20;99.90;;;;;;5046590;28;20437;-46
2023/12/08 01:51:05;;;;;;;36.10;19.25;;;0.20;99.90;;;;;;5049475;28;20640;-46
2023/12/08 01:53:31;;;;;;;35.40;18.50;;;0.30;99.90;;;;;;5049247;28;20039;-46
2023/12/08 01:55:57;;;;;;;40.05;20.90;;;0.20;99.90;;;;;;5045863;28;20092;-47
2023/12/08 01:58:24;;;;;;;34.50;18.45;;;0.30;99.90;;;;;;5046045;28;20100;-45
2023/12/08 02:00:51;;;;;;;33.45;18.30;;;0.30;99.90;;;;;;5048225;28;20107;-48
2023/12/08 02:03:17;;;;;;;39.63;21.15;;;0.30;99.90;;;;;;5044495;28;20528;-47
2023/12/08 02:05:50;;;;;;;36.30;20.50;;;0.30;99.90;;;;;;5039073;28;20664;-45
2023/12/08 02:08:19;;;;;;;38.15;19.88;;;0.30;99.90;;;;;;5049619;28;20025;-46
2023/12/08 02:10:46;;;;;;;34.88;19.42;;;0.30;99.90;;;;;;5047183;28;20115;-47
2023/12/08 02:13:13;;;;;;;41.25;19.77;;;0.30;99.90;;;;;;5049600;28;20020;-48
2023/12/08 02:15:39;;;;;;;39.72;19.27;;;0.30;99.90;;;;;;5047046;28;20804;-49
2023/12/08 02:18:07;;;;;;;39.17;19.75;;;0.30;99.90;;;;;;5049099;28;20029;-46
2023/12/08 02:20:33;;;;;;;34.33;17.42;;;0.30;99.90;;;;;;5047680;28;20540;-47
2023/12/08 02:22:59;;;;;;;37.72;19.40;;;0.30;99.90;;;;;;5049159;28;20112;-45
2023/12/08 02:25:24;;;;;;;38.42;21.20;;;0.30;99.90;;;;;;5049678;28;20017;-46
2023/12/08 02:27:50;;;;;;;41.00;20.60;;;0.30;99.90;;;;;;5046692;28;20390;-47
2023/12/08 02:30:16;;;;;;;38.00;18.95;;;0.30;99.90;;;;;;5043484;28;20021;-47
2023/12/08 02:33:02;;;;;;;36.55;19.70;;;0.30;99.90;;;;;;5047818;28;20107;-48
2023/12/08 02:35:30;;;;;;;37.97;19.25;;;0.30;99.90;;;;;;5050257;28;20519;-44
2023/12/08 02:37:59;;;;;;;35.65;18.15;;;0.20;99.90;;;;;;5049381;28;20098;-46
2023/12/08 02:40:24;;;;;;;40.83;20.58;;;0.20;99.90;;;;;;5049781;28;20106;-45
2023/12/08 02:42:50;;;;;;;34.58;19.80;;;0.20;99.90;;;;;;5049058;28;20067;-45
2023/12/08 02:45:16;;;;;;;41.03;19.23;;;0.30;99.90;;;;;;5049541;28;20021;-47
2023/12/08 02:47:41;;;;;;;40.25;20.17;;;0.20;99.90;;;;;;5049062;28;20175;-46
2023/12/08 02:50:07;;;;;;;35.92;18.80;;;0.20;99.90;;;;;;5048005;28;20382;-46
2023/12/08 02:52:33;;;;;;;35.22;19.45;;;0.20;99.90;;;;;;5049789;28;20398;-47
2023/12/08 02:54:58;;;;;;;39.80;19.13;;;0.20;99.90;;;;;;5049136;28;20017;-46
2023/12/08 02:57:24;;;;;;;37.03;20.63;;;0.20;99.90;;;;;;5049592;28;20616;-46
2023/12/08 02:59:49;;;;;;;38.13;19.05;;;0.20;99.90;;;;;;5049155;28;20021;-49
2023/12/08 03:02:15;;;;;;;40.15;20.73;;;0.20;99.90;;;;;;5049758;28;20017;-47
2023/12/08 03:04:41;;;;;;;45.35;23.15;;;0.30;99.90;;;;;;5049254;28;20071;-48
2023/12/08 03:07:06;;;;;;;38.72;19.75;;;0.30;99.90;;;;;;5030246;28;20033;-47
2023/12/08 03:09:32;;;;;;;42.42;21.52;;;0.30;99.90;;;;;;5028356;28;20191;-48
2023/12/08 03:11:57;;;;;;;42.60;21.15;;;0.30;99.90;;;;;;5029506;28;20092;-48
2023/12/08 03:14:23;;;;;;;40.35;21.20;;;0.30;99.90;;;;;;5045057;28;20041;-47
2023/12/08 03:16:49;;;;;;;41.03;19.40;;;0.30;99.90;;;;;;5029648;28;20025;-46
2023/12/08 03:19:15;;;;;;;40.60;19.60;;;0.40;99.90;;;;;;5029386;28;20052;-47
2023/12/08 03:21:41;;;;;;;34.72;18.80;;;0.40;99.90;;;;;;5029572;28;20021;-45
2023/12/08 03:24:06;;;;;;;40.22;21.30;;;0.40;99.90;;;;;;5028368;28;20379;-45
2023/12/08 03:26:32;;;;;;;39.85;21.27;;;0.40;99.90;;;;;;5029205;28;20041;-48
2023/12/08 03:28:58;;;;;;;42.45;20.67;;;0.40;99.90;;;;;;5028709;28;20025;-46
2023/12/08 03:31:27;;;;;;;38.10;20.33;;;0.40;99.90;;;;;;5029377;28;20673;-46
2023/12/08 03:33:53;;;;;;;45.50;20.50;;;0.50;99.90;;;;;;5028817;28;20508;-48
2023/12/08 03:36:19;;;;;;;35.10;18.92;;;0.50;99.90;;;;;;5044689;28;20100;-45
2023/12/08 03:38:45;;;;;;;37.88;19.77;;;0.50;99.90;;;;;;5029213;28;20030;-46
2023/12/08 03:41:14;;;;;;;37.92;19.60;;;0.50;99.90;;;;;;5029017;28;20364;-45
2023/12/08 03:43:40;;;;;;;33.17;19.70;;;0.50;99.90;;;;;;5028793;28;20017;-44
2023/12/08 03:46:07;;;;;;;39.03;21.13;;;0.50;99.90;;;;;;5028689;28;20641;-48
2023/12/08 03:48:38;;;;;;;39.60;19.90;;;0.60;99.90;;;;;;5028225;28;20056;-47
2023/12/08 03:51:05;;;;;;;35.90;19.95;;;0.60;99.90;;;;;;5021398;28;20022;-48
2023/12/08 03:53:31;;;;;;;34.83;18.52;;;0.60;99.90;;;;;;5028825;28;20502;-47
2023/12/08 03:55:57;;;;;;;38.85;20.02;;;0.60;99.90;;;;;;5028892;28;20364;-47
2023/12/08 03:58:22;;;;;;;35.45;20.23;;;0.60;99.90;;;;;;5044261;28;20028;-48
2023/12/08 04:00:48;;;;;;;37.15;19.05;;;0.60;99.90;;;;;;5028624;28;20029;-47
2023/12/08 04:03:13;;;;;;;33.25;18.73;;;0.60;99.90;;;;;;5044519;28;20017;-49
2023/12/08 04:05:39;;;;;;;37.47;19.60;;;0.60;99.90;;;;;;5028993;28;20021;-44
2023/12/08 04:08:05;;;;;;;36.33;19.10;;;0.60;99.90;;;;;;5044125;28;20032;-45
2023/12/08 04:10:33;;;;;;;35.72;19.77;;;0.60;99.90;;;;;;5028426;28;20490;-46
2023/12/08 04:12:59;;;;;;;32.53;18.38;;;0.60;99.90;;;;;;5043692;28;20390;-44
2023/12/08 04:15:24;;;;;;;36.05;19.50;;;0.60;99.90;;;;;;5028431;28;20047;-44
2023/12/08 04:17:50;;;;;;;34.92;19.05;;;0.60;99.90;;;;;;5028195;28;20017;-46
2023/12/08 04:20:19;;;;;;;34.50;19.52;;;0.70;99.90;;;;;;5027813;28;20071;-46
2023/12/08 04:22:44;;;;;;;36.28;18.70;;;0.60;99.90;;;;;;5027898;28;20037;-47
2023/12/08 04:25:12;;;;;;;36.80;18.55;;;0.60;99.90;;;;;;5028440;28;20064;-49
2023/12/08 04:27:38;;;;;;;35.92;19.30;;;0.70;99.90;;;;;;5028055;28;20029;-48
2023/12/08 04:30:04;;;;;;;36.00;18.83;;;0.70;99.90;;;;;;5024936;28;20410;-44
2023/12/08 04:32:31;;;;;;;32.78;17.77;;;0.60;99.90;;;;;;5028158;28;20111;-47
2023/12/08 04:34:57;;;;;;;41.92;19.70;;;0.70;99.90;;;;;;5027855;28;20039;-46
2023/12/08 04:37:23;;;;;;;37.90;19.33;;;0.70;99.90;;;;;;5028280;28;20108;-50
2023/12/08 04:39:48;;;;;;;31.73;18.30;;;0.70;99.90;;;;;;5027265;28;20092;-45
2023/12/08 04:42:15;;;;;;;35.03;19.25;;;0.70;99.90;;;;;;5043907;28;20270;-46
2023/12/08 04:44:40;;;;;;;36.10;17.75;;;0.70;99.90;;;;;;5028732;28;20026;-45
2023/12/08 04:47:06;;;;;;;32.47;17.83;;;0.70;99.90;;;;;;5028522;28;20095;-47
2023/12/08 04:49:31;;;;;;;36.55;18.90;;;0.70;99.90;;;;;;5028368;28;20108;-49
2023/12/08 04:51:57;;;;;;;37.90;18.85;;;0.80;99.90;;;;;;5027754;28;20044;-45
2023/12/08 04:54:23;;;;;;;33.40;17.83;;;0.80;99.90;;;;;;5027994;28;20431;-46
2023/12/08 04:56:48;;;;;;;27.42;16.35;;;0.80;99.90;;;;;;5027902;28;20102;-47
2023/12/08 04:59:14;;;;;;;32.83;18.38;;;0.80;99.90;;;;;;5027886;28;20036;-48
2023/12/08 05:01:39;;;;;;;41.08;17.85;;;0.80;99.90;;;;;;5028191;28;20569;-46
2023/12/08 05:04:05;;;;;;;35.75;18.48;;;0.80;99.90;;;;;;5028073;28;20367;-45
2023/12/08 05:06:31;;;;;;;33.92;18.75;;;0.80;99.90;;;;;;5027397;28;20033;-50
2023/12/08 05:08:57;;;;;;;34.08;18.63;;;0.80;99.90;;;;;;5027348;28;20033;-46
2023/12/08 05:11:22;;;;;;;38.42;19.08;;;0.80;99.90;;;;;;5028099;28;20024;-45
2023/12/08 05:13:48;;;;;;;31.98;17.83;;;0.80;99.90;;;;;;5028585;28;20093;-49
2023/12/08 05:16:15;;;;;;;41.13;20.33;;;0.80;99.90;;;;;;5030557;28;20030;-45
2023/12/08 05:18:41;;;;;;;39.72;19.17;;;0.80;99.90;;;;;;5030786;28;20556;-47
2023/12/08 05:21:07;;;;;;;34.33;19.00;;;0.80;99.90;;;;;;5030458;28;20365;-47
2023/12/08 05:23:33;;;;;;;33.38;18.00;;;0.80;99.90;;;;;;5030424;28;20033;-45
2023/12/08 05:25:59;;;;;;;33.75;18.08;;;0.80;99.90;;;;;;5031405;28;20033;-46
2023/12/08 05:28:25;;;;;;;34.65;18.67;;;0.80;99.90;;;;;;5030364;28;20057;-48
2023/12/08 05:30:53;;;;;;;35.92;18.50;;;0.90;99.90;;;;;;5031355;28;20061;-45
2023/12/08 05:33:19;;;;;;;38.25;19.65;;;0.90;99.90;;;;;;5029450;28;20479;-46
2023/12/08 05:35:44;;;;;;;35.53;18.83;;;0.80;99.90;;;;;;5031542;28;20038;-47
2023/12/08 05:38:10;;;;;;;42.58;19.20;;;0.90;99.90;;;;;;5046042;28;20068;-45
2023/12/08 05:40:36;;;;;;;36.15;19.05;;;0.90;99.90;;;;;;5030277;28;20021;-46
2023/12/08 05:43:02;;;;;;;36.83;19.27;;;0.90;99.90;;;;;;5031825;28;20090;-44
2023/12/08 05:45:28;;;;;;;37.72;20.02;;;0.90;99.90;;;;;;5030612;28;20117;-44
2023/12/08 05:47:53;;;;;;;37.70;19.52;;;0.90;99.90;;;;;;5031869;28;20454;-45
2023/12/08 05:50:19;;;;;;;38.40;20.40;;;1.00;99.90;;;;;;5030831;28;20052;-47
2023/12/08 05:52:45;;;;;;;34.13;18.48;;;0.90;99.90;;;;;;5035840;28;20406;-47
2023/12/08 05:55:10;;;;;;;41.53;20.88;;;0.90;99.90;;;;;;5034846;28;20028;-45
2023/12/08 05:57:36;;;;;;;36.75;20.45;;;0.90;99.90;;;;;;5049727;28;20101;-46
2023/12/08 06:00:05;;;;;;;35.47;19.20;;;0.90;99.90;;;;;;5034247;28;20708;-47
2023/12/08 06:02:31;;;;;;;41.00;20.55;;;0.90;99.90;;;;;;5034290;28;20041;-45
2023/12/08 06:04:56;;;;;;;39.85;20.05;;;0.90;99.90;;;;;;5035666;28;20091;-44
2023/12/08 06:07:22;;;;;;;36.88;18.92;;;0.90;99.90;;;;;;5034114;28;20080;-48
2023/12/08 06:09:47;;;;;;;39.72;18.92;;;0.90;99.90;;;;;;5035564;28;20025;-45
2023/12/08 06:12:13;;;;;;;34.50;19.13;;;1.00;99.90;;;;;;5040972;28;20100;-44
2023/12/08 06:14:39;;;;;;;35.75;19.10;;;1.00;99.90;;;;;;5034750;28;20018;-45
2023/12/08 06:17:04;;;;;;;37.97;20.75;;;1.00;99.90;;;;;;5035022;28;20321;-49
2023/12/08 06:19:30;;;;;;;39.42;21.45;;;1.00;99.90;;;;;;5049306;28;20033;-47
2023/12/08 06:21:56;;;;;;;35.55;19.65;;;1.00;99.90;;;;;;5034506;28;20039;-45
2023/12/08 06:24:22;;;;;;;40.13;20.15;;;1.00;99.90;;;;;;5034295;28;20117;-47
2023/12/08 06:26:47;;;;;;;38.17;19.63;;;1.00;99.90;;;;;;5035553;28;20156;-43
2023/12/08 06:29:13;;;;;;;39.40;20.50;;;1.00;99.90;;;;;;5034110;28;20330;-44
2023/12/08 06:31:38;;;;;;;35.15;19.98;;;1.00;99.90;;;;;;5034526;28;20029;-46
2023/12/08 06:34:04;;;;;;;33.85;18.55;;;1.00;99.90;;;;;;5035713;28;20064;-47
2023/12/08 06:36:30;;;;;;;38.88;19.92;;;1.00;99.90;;;;;;5034395;28;20021;-45
2023/12/08 06:38:55;;;;;;;36.17;19.23;;;1.10;99.90;;;;;;5035840;28;20041;-46
2023/12/08 06:41:21;;;;;;;37.35;19.83;;;1.10;99.90;;;;;;5034504;28;20029;-45
2023/12/08 06:43:48;;;;;;;38.70;19.88;;;1.10;99.90;;;;;;5035850;28;20025;-47
2023/12/08 06:46:13;;;;;;;36.80;19.73;;;1.10;99.90;;;;;;5034437;28;20017;-45
2023/12/08 06:48:39;;;;;;;34.65;19.88;;;1.10;99.90;;;;;;5034243;28;20453;-47
2023/12/08 06:51:05;;;;;;;33.50;18.83;;;1.10;99.90;;;;;;5034641;28;20029;-44
2023/12/08 06:53:30;;;;;;;35.92;19.60;;;1.10;99.90;;;;;;5034512;28;20053;-49
2023/12/08 06:55:56;;;;;;;37.05;20.13;;;1.10;99.90;;;;;;5036313;28;20029;-45
2023/12/08 06:58:21;;;;;;;35.50;19.42;;;1.10;99.90;;;;;;5034497;28;20017;-50
2023/12/08 07:00:48;;;;;;;40.95;20.08;;;1.10;99.90;;;;;;5036109;28;20018;-45
2023/12/08 07:03:13;;;;;;;40.13;20.70;;;1.10;99.90;;;;;;5033852;28;20009;-45
2023/12/08 07:05:39;;;;;;;41.78;20.98;;;1.10;99.90;;;;;;5034692;28;20098;-46
2023/12/08 07:08:05;;;;;;;36.92;20.40;;;1.10;99.90;;;;;;5035927;28;20029;-49
2023/12/08 07:10:30;;;;;;;39.10;19.63;;;1.10;99.90;;;;;;5034629;28;20048;-49
2023/12/08 07:12:56;;;;;;;39.65;20.92;;;1.10;99.90;;;;;;5036394;28;20033;-49
2023/12/08 07:15:22;;;;;;;44.10;22.30;;;1.20;99.90;;;;;;5034294;28;20067;-44
2023/12/08 07:17:47;;;;;;;36.97;19.45;;;1.20;99.90;;;;;;5033853;28;20658;-46
2023/12/08 07:20:13;;;;;;;38.95;21.30;;;1.10;99.90;;;;;;5049331;28;20087;-48
2023/12/08 07:22:40;;;;;;;39.47;20.50;;;1.10;99.90;;;;;;5034932;28;20041;-45
2023/12/08 07:25:09;;;;;;;36.45;20.83;;;1.10;99.90;;;;;;5036185;28;20162;-44
2023/12/08 07:27:34;;;;;;;44.22;21.83;;;1.10;99.90;;;;;;5034348;28;20080;-45
2023/12/08 07:30:00;;;;;;;38.95;20.13;;;1.10;99.90;;;;;;5033938;28;20029;-44
2023/12/08 07:32:25;;;;;;;42.65;21.20;;;1.10;99.90;;;;;;5034306;28;20045;-46
2023/12/08 07:34:51;;;;;;;41.95;22.23;;;1.10;99.90;;;;;;5036262;28;20021;-46
2023/12/08 07:37:17;;;;;;;37.78;19.27;;;1.10;99.90;;;;;;5034530;28;20471;-44
2023/12/08 07:39:42;;;;;;;44.67;20.85;;;1.10;99.90;;;;;;5034746;28;20026;-46
2023/12/08 07:42:08;;;;;;;39.30;21.15;;;1.10;99.90;;;;;;5035575;28;20443;-46
2023/12/08 07:44:35;;;;;;;39.13;20.42;;;1.10;99.90;;;;;;5034124;28;20029;-47
2023/12/08 07:47:01;;;;;;;38.67;19.95;;;1.20;99.90;;;;;;5036742;28;20379;-47
2023/12/08 07:49:26;;;;;;;39.72;20.38;;;1.20;99.90;;;;;;5029642;28;20041;-45
2023/12/08 07:51:52;;;;;;;40.88;21.27;;;1.20;99.90;;;;;;5035895;28;20087;-46
2023/12/08 07:54:18;;;;;;;40.28;20.80;;;1.20;99.90;;;;;;5029717;28;20055;-48
2023/12/08 07:56:43;;;;;;;40.20;19.65;;;1.20;99.90;;;;;;5035343;28;20023;-48
2023/12/08 07:59:09;;;;;;;40.13;21.02;;;1.20;99.90;;;;;;5034837;28;20023;-46
2023/12/08 08:01:35;;;;;;;38.75;20.00;;;1.20;99.90;;;;;;5049338;28;20021;-48
2023/12/08 08:04:01;;;;;;;39.95;21.25;;;1.20;99.90;;;;;;5037206;28;20017;-46
2023/12/08 08:06:26;;;;;;;39.83;22.10;;;1.20;99.90;;;;;;5034553;28;20490;-47
2023/12/08 08:08:52;;;;;;;40.38;20.98;;;1.20;99.90;;;;;;5036324;28;20071;-46
2023/12/08 08:11:18;;;;;;;40.30;20.38;;;1.20;99.90;;;;;;5034864;28;20018;-46
2023/12/08 08:13:43;;;;;;;33.78;18.92;;;1.20;99.90;;;;;;5034719;28;20030;-45
2023/12/08 08:16:09;;;;;;;41.08;21.55;;;1.20;99.90;;;;;;5035887;28;20056;-48
2023/12/08 08:18:34;;;;;;;38.60;19.60;;;1.20;99.90;;;;;;5033432;28;20013;-48
2023/12/08 08:21:00;;;;;;;40.30;19.85;;;1.20;99.90;;;;;;5037329;28;20048;-46
2023/12/08 08:23:26;;;;;;;39.28;20.33;;;1.20;99.90;;;;;;5034831;28;20029;-45
2023/12/08 08:25:52;;;;;;;39.67;21.42;;;1.30;99.90;;;;;;5035993;28;20021;-46
2023/12/08 08:28:18;;;;;;;36.15;19.70;;;1.30;99.90;;;;;;5034819;28;20075;-47
2023/12/08 08:30:44;;;;;;;40.53;20.33;;;1.30;99.90;;;;;;5034898;28;20017;-47
2023/12/08 08:33:10;;;;;;;38.08;20.20;;;1.30;99.90;;;;;;5036152;28;20032;-48
2023/12/08 08:35:36;;;;;;;38.53;20.23;;;1.30;99.90;;;;;;5049467;28;20033;-47
2023/12/08 08:38:01;;;;;;;37.42;21.20;;;1.30;99.90;;;;;;5037288;28;20048;-46
2023/12/08 08:40:27;;;;;;;36.67;20.13;;;1.30;99.90;;;;;;5034491;28;20013;-49
2023/12/08 08:42:52;;;;;;;39.35;21.85;;;1.30;99.90;;;;;;5036810;28;20470;-49
2023/12/08 08:45:19;;;;;;;39.75;19.00;;;1.40;99.90;;;;;;5032301;28;20542;-47
2023/12/08 08:47:45;;;;;;;41.05;21.90;;;1.40;99.90;;;;;;5036083;28;20483;-46
2023/12/08 08:50:11;;;;;;;35.00;19.40;;;1.40;99.90;;;;;;5036109;28;20032;-47
2023/12/08 08:52:37;;;;;;;37.97;21.15;;;1.40;99.90;;;;;;5042105;28;20030;-46
2023/12/08 08:55:04;;;;;;;36.45;19.88;;;1.40;99.90;;;;;;5029524;28;20147;-45
2023/12/08 08:57:30;;;;;;;34.10;19.23;;;1.40;99.90;;;;;;5028792;28;20471;-48
2023/12/08 08:59:56;;;;;;;38.50;19.95;;;1.40;99.90;;;;;;5036971;28;20517;-47
2023/12/08 09:02:21;;;;;;;39.00;20.65;;;1.40;99.90;;;;;;5036172;28;20033;-44
2023/12/08 09:04:47;;;;;;;37.05;21.25;;;1.40;99.90;;;;;;5031775;28;20486;-45
2023/12/08 09:07:13;;;;;;;39.72;20.45;;;1.40;99.90;;;;;;5035198;28;20033;-43
2023/12/08 09:09:38;;;;;;;38.33;19.95;;;1.40;99.90;;;;;;5034186;28;20032;-44
2023/12/08 09:12:04;;;;;;;40.53;21.15;;;1.50;99.90;;;;;;5037929;28;20573;-45
2023/12/08 09:14:30;;;;;;;38.83;20.77;;;1.50;99.90;;;;;;5050145;28;20062;-49
2023/12/08 09:16:56;;;;;;;39.47;21.58;;;1.50;99.90;;;;;;5038097;28;20033;-44
2023/12/08 09:19:22;;;;;;;37.00;19.60;;;1.50;99.90;;;;;;5035938;28;20025;-46
2023/12/08 09:21:47;;;;;;;38.90;21.58;;;1.40;99.90;;;;;;5037504;28;20029;-47
2023/12/08 09:24:13;;;;;;;38.92;20.13;;;1.50;99.90;;;;;;5037590;28;20474;-47
2023/12/08 09:26:39;;;;;;;38.13;20.65;;;1.50;99.90;;;;;;5038097;28;20025;-47
2023/12/08 09:29:05;;;;;;;37.80;19.67;;;1.50;99.90;;;;;;5042332;28;20033;-45
2023/12/08 09:31:30;;;;;;;39.25;21.15;;;1.50;99.90;;;;;;5038104;28;20037;-45
2023/12/08 09:33:57;;;;;;;37.28;19.25;;;1.50;99.90;;;;;;5042038;28;20040;-44
2023/12/08 09:36:23;;;;;;;40.45;19.90;;;1.50;99.90;;;;;;5040271;28;20086;-46
2023/12/08 09:38:48;;;;;;;38.05;20.83;;;1.50;99.90;;;;;;5040794;28;20017;-44
2023/12/08 09:41:15;;;;;;;39.47;21.00;;;1.50;99.90;;;;;;5041413;28;20493;-45
2023/12/08 09:43:51;;;;;;;38.47;20.13;;;1.60;99.90;;;;;;5040023;28;20611;-48
2023/12/08 09:46:18;;;;;;;40.30;20.35;;;1.60;99.90;;;;;;5041374;28;20108;-49
2023/12/08 09:48:45;;;;;;;35.63;18.42;;;1.60;99.90;;;;;;5040468;28;20032;-48
2023/12/08 09:51:14;;;;;;;35.88;19.33;;;1.70;99.90;;;;;;5042119;28;20501;-47
2023/12/08 09:53:41;;;;;;;36.13;20.13;;;1.70;99.90;;;;;;5040105;28;20521;-48
2023/12/08 09:56:08;;;;;;;35.55;19.83;;;1.80;99.90;;;;;;5042750;28;20036;-49
2023/12/08 09:58:35;;;;;;;33.38;19.10;;;1.80;99.90;;;;;;5039981;28;20274;-46
2023/12/08 10:01:01;;;;;;;36.63;19.75;;;1.80;99.90;;;;;;5042836;28;20025;-47
2023/12/08 10:03:27;;;;;;;34.22;18.77;;;1.90;99.90;;;;;;5040680;28;20557;-48
2023/12/08 10:05:55;;;;;;;37.42;19.48;;;1.90;99.90;;;;;;5041440;28;20026;-50
2023/12/08 10:08:21;;;;;;;35.63;19.48;;;1.90;99.90;;;;;;5041094;28;20021;-47
2023/12/08 10:10:47;;;;;;;36.08;19.42;;;2.00;99.90;;;;;;5038693;28;20390;-48
2023/12/08 10:13:13;;;;;;;32.22;18.02;;;1.90;99.90;;;;;;5038281;28;20029;-49
2023/12/08 10:15:43;;;;;;;37.17;19.60;;;2.00;99.90;;;;;;5039747;28;20036;-45
2023/12/08 10:18:25;;;;;;;30.63;17.73;;;1.90;99.90;;;;;;5043265;28;20017;-45
2023/12/08 10:20:52;;;;;;;30.83;17.35;;;1.80;99.90;;;;;;5042233;28;20036;-45
2023/12/08 10:23:21;;;;;;;34.95;16.98;;;1.80;99.90;;;;;;5042236;28;20172;-48
2023/12/08 10:25:48;;;;;;;32.95;17.75;;;1.80;99.90;;;;;;5041009;28;20021;-48
2023/12/08 10:28:13;;;;;;;29.70;17.50;;;1.70;99.90;;;;;;5034958;28;20049;-48
2023/12/08 10:30:46;;;;;;;28.65;16.88;;;1.70;99.90;;;;;;5037810;28;20495;-47
2023/12/08 10:33:19;;;;;;;29.75;16.58;;;1.70;99.90;;;;;;5040804;28;20363;-49
2023/12/08 10:35:46;;;;;;;34.20;17.13;;;1.70;99.90;;;;;;5039051;28;20030;-45
2023/12/08 10:38:12;;;;;;;32.15;18.83;;;1.70;99.90;;;;;;5041233;28;20468;-46
2023/12/08 10:40:45;;;;;;;37.20;19.65;;;1.60;99.90;;;;;;5039262;28;20017;-46
2023/12/08 10:43:11;;;;;;;28.60;15.00;;;1.60;99.90;;;;;;5042158;28;20052;-44
2023/12/08 10:45:37;;;;;;;32.72;17.15;;;1.60;99.90;;;;;;5034400;28;20053;-46
2023/12/08 10:48:04;;;;;;;30.80;16.70;;;1.60;99.90;;;;;;5042497;28;20256;-46
2023/12/08 10:50:30;;;;;;;31.67;17.25;;;1.60;99.90;;;;;;5039916;28;20453;-46
2023/12/08 10:52:58;;;;;;;35.72;18.17;;;1.60;99.90;;;;;;5057276;28;20021;-47
2023/12/08 10:55:23;;;;;;;32.15;16.30;;;1.50;99.90;;;;;;5035858;28;20458;-47
2023/12/08 10:57:55;;;;;;;36.42;18.35;;;1.50;99.90;;;;;;5038715;28;20025;-50
2023/12/08 11:00:24;;;;;;;29.17;16.45;;;1.60;99.90;;;;;;5036446;28;20036;-45
2023/12/08 11:02:49;;;;;;;34.65;18.25;;;1.50;99.90;;;;;;5055952;28;20499;-47
2023/12/08 11:05:25;;;;;;;34.03;19.15;;;1.40;99.90;;;;;;5037555;28;20152;-45
2023/12/08 11:07:53;;;;;;;32.92;17.70;;;1.40;99.90;;;;;;5040950;28;20025;-49
2023/12/08 11:10:20;;;;;;;30.95;16.45;;;1.30;99.90;;;;;;5037489;28;20025;-47
2023/12/08 11:13:11;;;;;;;29.80;16.77;;;1.40;99.90;;;;;;5038932;28;20033;-46
2023/12/08 11:15:40;;;;;;;32.55;17.08;;;1.40;99.90;;;;;;5035043;28;20044;-47
2023/12/08 11:18:24;;;;;;;35.10;19.08;;;1.40;99.90;;;;;;5041389;28;20137;-46
2023/12/08 11:20:51;;;;;;;37.47;19.70;;;1.40;99.90;;;;;;5036297;28;20049;-46
2023/12/08 11:23:18;;;;;;;33.70;17.80;;;1.40;99.90;;;;;;5042327;28;20020;-46
2023/12/08 11:25:56;;;;;;;36.20;19.13;;;1.40;99.90;;;;;;5037483;28;20370;-49
2023/12/08 11:28:34;;;;;;;33.58;18.83;;;1.40;99.90;;;;;;5041803;28;20021;-45
2023/12/08 11:31:34;;;;;;;33.08;17.42;;;1.50;99.90;;;;;;5037149;28;20025;-44
2023/12/08 11:34:07;;;;;;;35.72;19.02;;;1.50;99.90;;;;;;5042159;28;20171;-47
2023/12/08 11:36:33;;;;;;;36.50;19.60;;;1.60;99.90;;;;;;5037467;28;20037;-46
2023/12/08 11:38:59;;;;;;;34.78;18.77;;;1.60;99.90;;;;;;5042269;28;20025;-46
2023/12/08 11:41:27;;;;;;;37.20;19.55;;;1.60;99.90;;;;;;5042258;28;20021;-45
2023/12/08 11:43:53;;;;;;;35.55;19.77;;;1.60;99.90;;;;;;5041902;28;20399;-45
2023/12/08 11:46:19;;;;;;;34.22;18.65;;;1.60;99.90;;;;;;5041395;28;20013;-51
2023/12/08 11:48:48;;;;;;;34.50;19.58;;;1.60;99.90;;;;;;5040249;28;20104;-44
2023/12/08 11:51:15;;;;;;;37.58;19.95;;;1.60;99.90;;;;;;5043085;28;20023;-47
2023/12/08 11:53:57;;;;;;;37.67;20.17;;;1.60;99.90;;;;;;5040464;28;20034;-46
2023/12/08 11:56:43;;;;;;;35.85;18.73;;;1.60;99.90;;;;;;5042121;28;20032;-46
2023/12/08 11:59:13;;;;;;;38.00;20.88;;;1.60;99.90;;;;;;5032486;28;20025;-47
2023/12/08 12:01:42;;;;;;;37.50;19.38;;;1.60;99.90;;;;;;5040031;28;20021;-45
2023/12/08 12:04:08;;;;;;;36.85;20.95;;;1.60;99.90;;;;;;5043143;28;20025;-46
2023/12/08 12:06:35;;;;;;;43.63;22.85;;;1.60;99.90;;;;;;5040506;28;20033;-46
2023/12/08 12:09:02;;;;;;;39.28;21.08;;;1.60;99.90;;;;;;5031672;28;20017;-45
2023/12/08 12:11:32;;;;;;;40.38;21.83;;;1.60;99.90;;;;;;5030034;28;20013;-46
2023/12/08 12:13:59;;;;;;;43.95;21.90;;;1.60;99.90;;;;;;5029115;28;20013;-46
2023/12/08 12:16:25;;;;;;;41.95;20.90;;;1.60;99.90;;;;;;5032360;28;20136;-47
2023/12/08 12:18:52;;;;;;;37.35;20.98;;;1.60;99.90;;;;;;5035144;28;20010;-49
2023/12/08 12:21:19;;;;;;;38.60;21.58;;;1.60;99.90;;;;;;5030330;28;20051;-48
2023/12/08 12:23:46;;;;;;;41.70;22.40;;;1.60;99.90;;;;;;5038662;28;20026;-46
2023/12/08 12:26:14;;;;;;;43.60;22.30;;;1.60;99.90;;;;;;5039704;28;20021;-47
2023/12/08 12:28:40;;;;;;;45.13;22.48;;;1.70;99.90;;;;;;5030393;28;20025;-47
2023/12/08 12:31:06;;;;;;;42.80;21.23;;;1.60;99.90;;;;;;5032064;28;20034;-45
2023/12/08 12:33:31;;;;;;;44.97;23.30;;;1.60;99.90;;;;;;5033872;28;20029;-46